Terminal Aerodrome Forecast
Issued by NWS Portland, OR

Home | Current Version | Previous Version | Text Only | Print | Product List | Glossary On
Versions: 1 2 3 4 5 6 7 8 9 10 11 12 13 14 15 16 17 18 19 20 21 22 23 24 25 26 27 28
000
FTUS46 KPQR 200520
TAFSLE
TAF
KSLE 200520Z 2006/2106 VRB03KT P6SM SCT250
     FM201200 VRB03KT P6SM SCT100 BKN200
     FM202100 24006KT P6SM FEW060 BKN100
     FM210200 25007KT P6SM BKN050 OVC090=

USA.gov is the U.S. government's official web portal to all federal, state and local government web resources and services.